Time;durP1;ratioP1;P1;durP2;ratioP2;P2;SDS_P1;SDS_P2;PMS_P1;PMS_P2;Temp;Humidity;BMP_temperature;BMP_pressure;BME280_temperature;BME280_humidity;BME280_pressure;Samples;Min_cycle;Max_cycle;Signal;HPM_P1;HPM_P2
2022/08/10 00:01:50;;;;;;;4.30;1.45;;;;;;;17.58;52.59;98946.66;4902924;29;20044;-74
2022/08/10 00:04:19;;;;;;;2.60;2.35;;;;;;;17.65;52.52;98946.75;4915906;29;20469;-74
2022/08/10 00:06:49;;;;;;;2.35;1.92;;;;;;;17.59;54.81;98944.81;4915061;29;20079;-74
2022/08/10 00:09:15;;;;;;;4.25;2.13;;;;;;;17.54;53.40;98943.53;4923136;29;20714;-74
2022/08/10 00:11:42;;;;;;;3.15;1.88;;;;;;;17.54;54.54;98946.22;4918616;29;20589;-74
2022/08/10 00:14:08;;;;;;;3.85;2.20;;;;;;;17.46;55.49;98937.47;4915637;29;20044;-74
2022/08/10 00:16:35;;;;;;;5.28;2.10;;;;;;;17.41;54.67;98945.22;4916619;29;20056;-74
2022/08/10 00:19:02;;;;;;;2.70;1.95;;;;;;;17.40;53.62;98949.72;4922997;29;20060;-74
2022/08/10 00:21:28;;;;;;;3.85;1.85;;;;;;;17.38;53.62;98940.22;4918967;29;20059;-74
2022/08/10 00:23:55;;;;;;;2.53;2.10;;;;;;;17.39;56.36;98937.38;4924302;29;20529;-74
2022/08/10 00:26:22;;;;;;;2.33;2.13;;;;;;;17.39;55.85;98937.38;4925181;29;20392;-74
2022/08/10 00:28:48;;;;;;;2.47;1.98;;;;;;;17.34;56.48;98945.13;4926026;29;20079;-74
2022/08/10 00:31:15;;;;;;;4.18;2.17;;;;;;;17.37;56.78;98943.91;4937179;28;20051;-74
2022/08/10 00:33:42;;;;;;;4.43;1.88;;;;;;;17.31;54.88;98948.16;4936274;28;20054;-74
2022/08/10 00:36:08;;;;;;;2.25;1.95;;;;;;;17.25;55.00;98941.72;4920773;29;20055;-73
2022/08/10 00:38:36;;;;;;;2.85;1.95;;;;;;;17.20;55.22;98940.63;4916019;29;20436;-74
2022/08/10 00:41:03;;;;;;;4.03;1.88;;;;;;;17.19;55.21;98949.63;4930559;28;20321;-74
2022/08/10 00:43:29;;;;;;;3.30;2.28;;;;;;;17.16;54.33;98950.00;4926163;29;20115;-74
2022/08/10 00:45:56;;;;;;;3.63;2.03;;;;;;;17.12;56.15;98946.88;4935207;28;20044;-74
2022/08/10 00:48:27;;;;;;;4.70;2.15;;;;;;;17.08;56.73;98941.03;4939799;28;20202;-74
2022/08/10 00:50:54;;;;;;;5.63;1.95;;;;;;;17.06;55.24;98942.25;4923928;29;20043;-74
2022/08/10 00:53:21;;;;;;;8.88;1.70;;;;;;;17.00;56.00;98934.97;4931272;28;20115;-74
2022/08/10 00:55:48;;;;;;;3.72;2.00;;;;;;;16.98;55.55;98932.50;4921638;29;20071;-73
2022/08/10 00:58:36;;;;;;;2.90;2.10;;;;;;;16.99;55.99;98936.81;4914769;29;20060;-74
2022/08/10 01:01:04;;;;;;;2.63;2.03;;;;;;;16.98;55.06;98942.34;4928982;29;20055;-74
2022/08/10 01:03:36;;;;;;;2.25;2.05;;;;;;;16.94;56.36;98938.38;4928051;29;20098;-74
2022/08/10 01:06:31;;;;;;;3.88;2.13;;;;;;;16.92;55.93;98935.06;4924559;29;20726;-74
2022/08/10 01:09:01;;;;;;;3.50;2.10;;;;;;;16.88;56.04;98934.59;4927728;29;20051;-74
2022/08/10 01:11:38;;;;;;;2.30;2.10;;;;;;;16.86;57.95;98931.28;4922856;29;20131;-74
2022/08/10 01:14:34;;;;;;;2.92;2.10;;;;;;;16.82;57.39;98938.81;4921714;29;20043;-74
2022/08/10 01:17:10;;;;;;;2.75;1.52;;;;;;;16.82;56.79;98933.47;4919227;29;20040;-74
2022/08/10 01:19:56;;;;;;;1.85;1.75;;;;;;;16.75;56.07;98932.53;4922367;29;20449;-74
2022/08/10 01:22:44;;;;;;;4.57;2.20;;;;;;;16.71;57.30;98944.56;4928301;29;20054;-74
2022/08/10 01:25:38;;;;;;;3.78;2.47;;;;;;;16.70;56.32;98932.22;4926926;29;20049;-74
2022/08/10 01:28:46;;;;;;;2.85;2.17;;;;;;;16.67;56.58;98935.28;4915916;29;20044;-74
2022/08/10 01:31:18;;;;;;;3.08;1.83;;;;;;;16.61;57.37;98935.97;4911182;29;20046;-74
2022/08/10 01:33:57;;;;;;;3.80;1.73;;;;;;;16.56;56.93;98946.38;4918425;29;20064;-74
2022/08/10 01:36:33;;;;;;;2.05;1.88;;;;;;;16.52;58.16;98940.56;4929730;29;20318;-74
2022/08/10 01:39:02;;;;;;;5.78;2.13;;;;;;;16.53;58.39;98936.88;4915822;29;20124;-74
2022/08/10 01:41:50;;;;;;;3.55;2.03;;;;;;;16.52;57.76;98937.91;4924547;29;20054;-74
2022/08/10 01:44:28;;;;;;;3.53;2.05;;;;;;;16.54;56.96;98943.91;4916872;29;20062;-74
2022/08/10 01:48:27;;;;;;;2.80;1.88;;;;;;;16.58;57.32;98939.00;4918507;29;20044;-73
2022/08/10 01:49:53;;;;;;;2.25;1.80;;;;;;;16.64;57.03;98932.94;4921694;29;20051;-73
2022/08/10 01:52:22;;;;;;;4.70;2.30;;;;;;;16.63;57.02;98942.78;4925229;29;20384;-73
2022/08/10 01:54:50;;;;;;;3.70;2.05;;;;;;;16.60;56.63;98940.50;4918002;29;20518;-73
2022/08/10 01:57:19;;;;;;;2.03;1.58;;;;;;;16.55;57.35;98940.19;4917655;29;20486;-73
2022/08/10 01:59:47;;;;;;;2.22;2.03;;;;;;;16.53;57.94;98946.72;4925734;29;20055;-73
2022/08/10 02:02:32;;;;;;;2.50;1.92;;;;;;;16.52;58.22;98950.44;4920835;29;20060;-73
2022/08/10 02:05:01;;;;;;;2.90;1.90;;;;;;;16.51;57.99;98949.59;4922696;29;20125;-73
2022/08/10 02:07:29;;;;;;;3.67;1.90;;;;;;;16.54;57.93;98948.41;4926175;29;20055;-73
2022/08/10 02:10:07;;;;;;;3.92;2.00;;;;;;;16.55;58.16;98953.56;4929184;29;20052;-73
2022/08/10 02:12:34;;;;;;;2.90;2.40;;;;;;;16.50;58.36;98947.09;4920198;29;20061;-73
2022/08/10 02:15:09;;;;;;;2.38;1.80;;;;;;;16.44;58.52;98949.47;4931523;29;20465;-73
2022/08/10 02:17:39;;;;;;;2.63;2.40;;;;;;;16.39;58.92;98940.34;4918983;29;20052;-74
2022/08/10 02:20:30;;;;;;;2.25;2.05;;;;;;;16.38;59.10;98942.19;4934034;28;20058;-73
2022/08/10 02:23:08;;;;;;;2.90;2.00;;;;;;;16.38;58.96;98944.84;4923101;29;20047;-73
2022/08/10 02:25:36;;;;;;;2.10;1.90;;;;;;;16.38;58.96;98938.69;4907639;29;20052;-73
2022/08/10 02:28:09;;;;;;;2.25;2.00;;;;;;;16.52;58.31;98934.41;4928428;29;20059;-74
2022/08/10 02:30:36;;;;;;;2.00;1.80;;;;;;;16.45;58.04;98939.63;4918859;29;20054;-73
2022/08/10 02:33:03;;;;;;;2.03;1.83;;;;;;;16.41;58.55;98944.50;4917377;29;20525;-74
2022/08/10 02:35:30;;;;;;;2.63;1.95;;;;;;;16.35;59.09;98947.03;4953443;28;20111;-73
2022/08/10 02:38:22;;;;;;;2.90;2.13;;;;;;;16.31;59.83;98951.09;4920870;29;20052;-73
2022/08/10 02:41:21;;;;;;;7.45;2.47;;;;;;;16.23;60.14;98952.81;4929248;29;20498;-73
2022/08/10 02:44:21;;;;;;;3.05;1.92;;;;;;;16.24;59.36;98943.81;4927162;29;20039;-73
2022/08/10 02:47:11;;;;;;;1.92;1.83;;;;;;;16.27;59.07;98944.44;4923163;29;20063;-73
2022/08/10 02:49:41;;;;;;;2.42;1.90;;;;;;;16.27;59.67;98947.94;4940331;28;20055;-73
2022/08/10 02:52:16;;;;;;;3.50;2.15;;;;;;;16.33;58.88;98943.72;4917224;29;20126;-73
2022/08/10 02:54:50;;;;;;;4.20;1.90;;;;;;;16.34;59.05;98946.22;4923841;29;20127;-73
2022/08/10 02:57:24;;;;;;;10.23;2.15;;;;;;;16.41;58.99;98951.69;4923391;29;20055;-73
2022/08/10 02:59:53;;;;;;;2.15;1.95;;;;;;;16.44;58.63;98959.34;4916719;29;20056;-73
2022/08/10 03:02:29;;;;;;;2.15;1.90;;;;;;;16.47;58.36;98945.63;4927193;29;20062;-73
2022/08/10 03:05:04;;;;;;;2.38;2.00;;;;;;;16.49;57.82;98942.78;4928879;29;20478;-73
2022/08/10 03:07:36;;;;;;;2.88;2.00;;;;;;;16.52;58.42;98948.56;4923291;29;20047;-73
2022/08/10 03:10:16;;;;;;;3.13;2.20;;;;;;;16.49;58.75;98943.59;4914687;29;20071;-73
2022/08/10 03:12:46;;;;;;;1.83;1.70;;;;;;;16.49;59.00;98943.59;4923587;29;20138;-73
2022/08/10 03:15:13;;;;;;;2.85;1.80;;;;;;;16.47;58.85;98950.94;4924686;29;20419;-73
2022/08/10 03:17:43;;;;;;;2.20;1.80;;;;;;;16.45;58.95;98940.44;4955962;28;20099;-73
2022/08/10 03:20:25;;;;;;;2.25;2.00;;;;;;;16.40;58.96;98945.50;4926838;29;20052;-73
2022/08/10 03:23:09;;;;;;;2.90;2.28;;;;;;;16.36;58.96;98935.38;4922658;29;20565;-73
2022/08/10 03:25:37;;;;;;;3.05;2.30;;;;;;;16.36;59.23;98943.38;4931311;28;20827;-74
2022/08/10 03:28:04;;;;;;;3.50;1.90;;;;;;;16.31;59.44;98946.56;4921341;29;20055;-74
2022/08/10 03:30:31;;;;;;;4.90;2.53;;;;;;;16.27;59.45;98947.09;4927333;29;20118;-74
2022/08/10 03:33:02;;;;;;;2.75;1.90;;;;;;;16.21;60.04;98944.13;4929194;29;20063;-74
2022/08/10 03:35:28;;;;;;;2.30;2.10;;;;;;;16.18;59.64;98946.34;4927255;29;20039;-74
2022/08/10 03:37:55;;;;;;;2.63;2.00;;;;;;;16.13;59.76;98956.72;4936386;28;20057;-74
2022/08/10 03:40:28;;;;;;;2.55;2.35;;;;;;;16.04;60.43;98955.94;4927637;29;22619;-74
2022/08/10 03:43:16;;;;;;;3.00;2.47;;;;;;;15.96;60.61;98954.16;4921100;29;20131;-74
2022/08/10 03:45:47;;;;;;;2.47;2.20;;;;;;;15.95;60.55;98948.97;4913134;29;20052;-74
2022/08/10 03:48:23;;;;;;;2.17;1.98;;;;;;;15.97;60.75;98957.66;4921651;29;20052;-74
2022/08/10 03:51:13;;;;;;;3.78;2.40;;;;;;;15.94;60.67;98953.50;4923757;29;20050;-74
2022/08/10 03:53:40;;;;;;;2.58;2.35;;;;;;;15.94;60.18;98958.00;4925454;29;20457;-74
2022/08/10 03:56:27;;;;;;;3.30;2.25;;;;;;;15.90;61.02;98956.69;4932929;29;20052;-74
2022/08/10 03:58:58;;;;;;;4.57;2.08;;;;;;;15.84;61.10;98965.41;4901269;29;20127;-73
2022/08/10 04:01:25;;;;;;;2.85;2.38;;;;;;;15.84;61.44;98963.56;4916963;29;20062;-74
2022/08/10 04:04:12;;;;;;;5.10;2.65;;;;;;;15.88;60.63;98964.06;4924262;29;20048;-74
2022/08/10 04:06:46;;;;;;;4.13;2.25;;;;;;;15.92;60.53;98955.50;4922154;29;20083;-76
2022/08/10 04:09:17;;;;;;;3.83;2.22;;;;;;;15.94;60.34;98963.34;4924507;29;20044;-74
2022/08/10 04:11:43;;;;;;;1.90;1.80;;;;;;;15.93;61.16;98961.66;4933428;29;20054;-73
2022/08/10 04:14:10;;;;;;;2.50;2.20;;;;;;;15.94;60.82;98968.69;4924892;29;20046;-73
2022/08/10 04:16:56;;;;;;;3.17;2.40;;;;;;;15.87;61.19;98973.88;4921322;29;20063;-73
2022/08/10 04:19:24;;;;;;;3.55;2.05;;;;;;;15.84;61.19;98974.22;4940684;28;20067;-73
2022/08/10 04:21:58;;;;;;;2.60;2.40;;;;;;;15.89;61.48;98977.19;4920563;29;20056;-73
2022/08/10 04:24:25;;;;;;;4.30;2.33;;;;;;;15.93;60.80;98978.53;4920743;29;20060;-74
2022/08/10 04:26:59;;;;;;;4.20;2.47;;;;;;;16.04;59.67;98974.63;4914212;29;20040;-74
2022/08/10 04:29:26;;;;;;;3.42;2.45;;;;;;;16.06;59.28;98974.44;4924024;29;20051;-74
2022/08/10 04:31:52;;;;;;;5.22;2.47;;;;;;;16.03;59.98;98975.63;4918957;29;20047;-74
2022/08/10 04:34:19;;;;;;;2.78;2.17;;;;;;;16.00;59.91;98984.81;4921398;29;20051;-74
2022/08/10 04:36:48;;;;;;;3.38;2.20;;;;;;;15.97;59.35;98971.00;4925426;29;20050;-74
2022/08/10 04:39:16;;;;;;;2.72;2.53;;;;;;;16.00;59.56;98975.97;4925222;29;20059;-74
2022/08/10 04:41:42;;;;;;;2.40;2.20;;;;;;;16.02;60.22;98974.78;4926580;29;20063;-74
2022/08/10 04:44:13;;;;;;;3.03;2.25;;;;;;;16.08;60.42;98975.91;4928639;29;20051;-74
2022/08/10 04:46:40;;;;;;;4.25;2.53;;;;;;;16.04;60.48;98976.47;4909153;29;20052;-74
2022/08/10 04:49:24;;;;;;;3.15;2.72;;;;;;;15.99;61.38;98982.31;4904430;29;20047;-74
2022/08/10 04:52:10;;;;;;;2.88;2.60;;;;;;;15.99;62.29;98988.50;4913908;29;20047;-75
2022/08/10 04:54:37;;;;;;;5.45;2.72;;;;;;;15.99;61.01;98979.66;4920303;29;20051;-74
2022/08/10 04:57:04;;;;;;;3.58;2.55;;;;;;;16.01;61.27;98975.81;4925897;29;20117;-74
2022/08/10 04:59:31;;;;;;;3.05;2.47;;;;;;;16.01;61.28;98975.81;4925366;29;20558;-74
2022/08/10 05:01:58;;;;;;;5.22;2.50;;;;;;;16.08;61.22;98970.59;4924456;29;20048;-74
2022/08/10 05:04:44;;;;;;;4.00;2.63;;;;;;;16.11;62.04;98972.06;4917798;29;20039;-74
2022/08/10 05:07:13;;;;;;;5.70;2.55;;;;;;;16.16;61.41;98978.53;4918265;29;20052;-73
2022/08/10 05:09:43;;;;;;;2.83;2.43;;;;;;;16.17;61.47;98979.38;4917596;29;20043;-73
2022/08/10 05:12:31;;;;;;;4.50;2.45;;;;;;;16.16;60.77;98973.19;4925788;29;20529;-73
2022/08/10 05:15:03;;;;;;;3.80;2.40;;;;;;;16.20;61.77;98979.84;4922897;29;20075;-73
2022/08/10 05:17:29;;;;;;;3.78;2.50;;;;;;;16.24;62.29;98983.00;4925179;29;20046;-74
2022/08/10 05:19:56;;;;;;;4.10;2.42;;;;;;;16.30;62.89;98978.78;4926842;29;20043;-73
2022/08/10 05:22:35;;;;;;;4.18;2.45;;;;;;;16.49;61.57;98989.00;4914527;29;20155;-73
2022/08/10 05:25:04;;;;;;;6.57;2.80;;;;;;;16.57;61.76;98990.78;4916718;29;20059;-73
2022/08/10 05:27:30;;;;;;;3.55;2.50;;;;;;;16.66;62.07;98990.53;4923381;29;20080;-73
2022/08/10 05:29:57;;;;;;;3.22;2.45;;;;;;;16.76;62.13;98990.28;4923456;29;20135;-73
2022/08/10 05:32:29;;;;;;;3.55;2.67;;;;;;;16.77;61.83;98985.75;4925898;29;20079;-73
2022/08/10 05:34:56;;;;;;;5.50;2.72;;;;;;;16.85;62.07;98988.38;4925324;29;20518;-73
2022/08/10 05:37:23;;;;;;;5.22;2.75;;;;;;;16.95;61.94;98988.97;4923259;29;20122;-73
2022/08/10 05:40:10;;;;;;;4.75;2.92;;;;;;;17.03;61.43;98985.38;4915926;29;20056;-73
2022/08/10 05:42:38;;;;;;;5.25;2.72;;;;;;;17.06;61.54;98995.72;4919984;29;20054;-73
2022/08/10 05:45:08;;;;;;;7.82;2.85;;;;;;;17.07;62.50;98989.38;4922888;29;20070;-72
2022/08/10 05:47:34;;;;;;;2.88;2.40;;;;;;;17.12;62.02;98989.66;4937933;28;20450;-73
2022/08/10 05:50:25;;;;;;;3.45;2.97;;;;;;;17.19;61.24;98995.91;4924441;29;20055;-72
2022/08/10 05:52:53;;;;;;;3.45;3.15;;;;;;;17.28;61.76;98994.00;4911991;29;20039;-73
2022/08/10 05:55:21;;;;;;;4.75;2.90;;;;;;;17.31;60.58;98996.31;4917479;29;20056;-72
2022/08/10 05:57:48;;;;;;;3.97;2.90;;;;;;;17.40;61.43;98987.16;4914611;29;20080;-72
2022/08/10 06:00:18;;;;;;;5.50;2.88;;;;;;;17.49;61.13;98994.09;4924370;29;20051;-73
2022/08/10 06:03:07;;;;;;;3.15;2.40;;;;;;;17.74;58.01;98993.78;4923090;29;20138;-72
2022/08/10 06:05:36;;;;;;;5.18;2.25;;;;;;;17.85;58.78;98995.19;4925153;29;20071;-72
2022/08/10 06:08:30;;;;;;;5.22;2.65;;;;;;;18.07;58.05;98999.56;4919405;29;20040;-73
2022/08/10 06:10:58;;;;;;;4.95;2.40;;;;;;;18.27;53.44;98991.75;4920224;29;20066;-73
2022/08/10 06:16:42;;;;;;;5.30;2.58;;;;;;;18.58;55.52;99001.34;4920630;29;20055;-73
2022/08/10 06:19:10;;;;;;;2.47;2.28;;;;;;;18.70;53.43;98998.97;4922700;29;20050;-73
2022/08/10 06:21:42;;;;;;;6.32;2.25;;;;;;;18.60;56.75;98988.56;4924515;29;20059;-73
2022/08/10 06:24:32;;;;;;;2.38;2.13;;;;;;;18.64;56.93;98990.69;4934956;28;20047;-72
2022/08/10 06:27:04;;;;;;;3.38;2.40;;;;;;;18.79;56.56;98993.31;4917467;29;20135;-72
2022/08/10 06:29:33;;;;;;;2.63;2.10;;;;;;;19.04;51.72;99001.75;4910828;29;20048;-73
2022/08/10 06:32:00;;;;;;;3.28;2.10;;;;;;;19.26;51.87;98999.84;4918837;29;20055;-73
2022/08/10 06:34:46;;;;;;;4.78;2.22;;;;;;;19.56;50.93;98993.41;4922192;29;20039;-73
2022/08/10 06:37:15;;;;;;;2.80;1.88;;;;;;;19.58;52.19;98989.50;4928098;29;20044;-72
2022/08/10 06:39:43;;;;;;;3.22;2.38;;;;;;;19.85;49.28;98997.72;4926108;29;20132;-73
2022/08/10 06:42:18;;;;;;;3.42;2.28;;;;;;;20.06;48.03;98996.75;4926422;29;20410;-73
2022/08/10 06:44:54;;;;;;;2.70;1.90;;;;;;;20.22;50.27;98995.56;4934172;29;20380;-72
2022/08/10 06:47:24;;;;;;;3.55;1.80;;;;;;;20.33;47.23;98995.81;4918570;29;20060;-73
2022/08/10 06:49:53;;;;;;;3.47;1.95;;;;;;;20.58;49.77;98993.38;4928143;29;20134;-73
2022/08/10 06:52:29;;;;;;;2.90;1.77;;;;;;;20.63;47.37;98987.41;4927275;29;20103;-73
2022/08/10 06:54:57;;;;;;;3.22;1.67;;;;;;;20.73;47.57;98995.06;4922651;29;20752;-73
2022/08/10 06:57:27;;;;;;;3.70;2.15;;;;;;;20.86;48.92;98992.38;4909717;29;20143;-72
2022/08/10 06:59:56;;;;;;;5.32;2.50;;;;;;;20.90;46.70;98993.59;4927396;29;20127;-73
2022/08/10 07:02:52;;;;;;;4.75;2.10;;;;;;;20.94;47.62;98986.78;4918826;29;20403;-73
2022/08/10 07:05:21;;;;;;;5.13;2.08;;;;;;;21.20;46.20;98991.31;4926124;29;20864;-73
2022/08/10 07:07:50;;;;;;;5.75;1.70;;;;;;;21.33;45.40;98990.47;4930866;29;20055;-73
2022/08/10 07:10:18;;;;;;;2.47;1.90;;;;;;;21.35;44.67;98985.69;4928415;29;20036;-73
2022/08/10 07:12:50;;;;;;;4.85;1.83;;;;;;;21.46;46.23;98990.47;4925208;29;20044;-72
2022/08/10 07:15:17;;;;;;;3.78;1.77;;;;;;;21.71;43.93;98989.75;4923672;29;20040;-72
2022/08/10 07:17:45;;;;;;;3.78;1.75;;;;;;;21.77;45.12;98996.16;4927602;29;20140;-72
2022/08/10 07:20:17;;;;;;;2.67;1.85;;;;;;;21.86;44.18;98986.81;4918138;29;20062;-72
2022/08/10 07:22:47;;;;;;;;;;;;;;;21.99;44.14;98994.03;4920383;29;20137;-73
2022/08/10 07:25:34;;;;;;;3.30;2.10;;;;;;;22.12;44.97;98988.56;4938890;28;19938;-73
2022/08/10 07:28:01;;;;;;;2.78;1.75;;;;;;;22.24;42.40;98984.16;4941510;28;20058;-72
2022/08/10 07:30:30;;;;;;;5.40;1.80;;;;;;;22.33;43.05;98982.88;4923092;29;20127;-73
2022/08/10 07:32:59;;;;;;;3.03;1.50;;;;;;;22.32;44.79;98988.47;4926777;29;20051;-72
2022/08/10 07:35:26;;;;;;;4.68;1.65;;;;;;;22.25;44.48;98980.44;4922263;29;20032;-72
2022/08/10 07:38:01;;;;;;;2.22;1.52;;;;;;;22.35;44.31;98982.63;4923369;29;20048;-72
2022/08/10 07:40:30;;;;;;;5.65;1.88;;;;;;;22.44;44.96;98983.22;4923262;29;20070;-72
2022/08/10 07:42:58;;;;;;;3.20;2.08;;;;;;;22.42;44.48;98972.66;4924376;29;20043;-73
2022/08/10 07:45:27;;;;;;;3.78;1.75;;;;;;;22.52;45.47;98977.56;4930734;29;20040;-73
2022/08/10 07:48:02;;;;;;;5.90;1.67;;;;;;;22.55;45.42;98985.22;4924159;29;20067;-72
2022/08/10 07:50:35;;;;;;;4.97;1.80;;;;;;;22.73;44.10;98979.88;4923537;29;20059;-72
2022/08/10 07:53:03;;;;;;;2.13;1.25;;;;;;;22.85;43.23;98981.88;4925046;29;20055;-73
2022/08/10 07:55:31;;;;;;;2.33;1.23;;;;;;;22.88;43.17;98974.19;4915847;29;20167;-73
2022/08/10 07:58:19;;;;;;;2.10;1.60;;;;;;;22.94;43.05;98975.16;4917046;29;20051;-73
2022/08/10 08:00:47;;;;;;;2.95;1.75;;;;;;;23.17;42.97;98979.94;4922783;29;20204;-72
2022/08/10 08:03:14;;;;;;;3.50;1.55;;;;;;;23.30;43.09;98969.03;4926784;29;20092;-73
2022/08/10 08:05:42;;;;;;;3.55;1.60;;;;;;;23.59;39.41;98963.91;4928212;29;20032;-73
2022/08/10 08:08:29;;;;;;;3.63;1.67;;;;;;;23.96;38.47;98964.75;4920846;29;20077;-73
2022/08/10 08:10:57;;;;;;;5.95;1.30;;;;;;;24.16;39.79;98969.06;4918890;29;20058;-73
2022/08/10 08:13:24;;;;;;;1.77;1.45;;;;;;;24.15;40.19;98970.94;4918401;29;20048;-73
2022/08/10 08:15:51;;;;;;;1.98;1.40;;;;;;;24.26;38.76;98974.75;4923250;29;20044;-72
2022/08/10 08:18:39;;;;;;;1.80;1.42;;;;;;;24.40;38.79;98975.34;4920196;29;20043;-73
2022/08/10 08:21:27;;;;;;;2.17;1.25;;;;;;;24.67;37.25;98967.69;4924330;29;20043;-73
2022/08/10 08:24:14;;;;;;;3.15;1.60;;;;;;;24.77;36.80;98973.34;4926582;29;20048;-73
2022/08/10 08:27:00;;;;;;;2.50;1.23;;;;;;;24.85;35.49;98970.28;4913072;29;20059;-73
2022/08/10 08:29:27;;;;;;;1.63;1.38;;;;;;;24.95;35.10;98969.72;4918349;29;20050;-72
2022/08/10 08:31:54;;;;;;;4.25;1.58;;;;;;;24.96;36.73;98974.06;4924397;29;20048;-72
2022/08/10 08:34:30;;;;;;;3.78;1.80;;;;;;;25.08;36.31;98974.91;4914134;29;20471;-73
2022/08/10 08:36:59;;;;;;;2.72;1.30;;;;;;;25.22;35.71;98972.00;4920739;29;20054;-72
2022/08/10 08:39:26;;;;;;;2.30;1.38;;;;;;;25.51;34.19;98964.78;4925784;29;20405;-73
2022/08/10 08:41:59;;;;;;;5.65;1.33;;;;;;;25.72;33.26;98963.31;4920659;29;20058;-73
2022/08/10 08:45:03;;;;;;;4.25;1.40;;;;;;;25.25;35.92;98966.94;4912725;29;20139;-73
2022/08/10 08:48:00;;;;;;;3.40;1.60;;;;;;;25.31;35.62;98965.16;4917149;29;20051;-72
2022/08/10 08:50:50;;;;;;;3.33;1.45;;;;;;;25.78;33.63;98959.66;4924959;29;20074;-72
2022/08/10 08:53:22;;;;;;;2.92;1.50;;;;;;;26.14;32.81;98955.75;4929020;29;20040;-73
2022/08/10 08:56:23;;;;;;;2.80;1.70;;;;;;;26.15;34.20;98957.41;4919767;29;20055;-73
2022/08/10 08:59:05;;;;;;;2.13;1.30;;;;;;;25.63;34.50;98958.28;4918386;29;20057;-72
2022/08/10 09:01:43;;;;;;;2.30;1.13;;;;;;;25.98;33.25;98964.69;4920422;29;20062;-73
2022/08/10 09:04:28;;;;;;;4.15;1.20;;;;;;;26.33;30.99;98963.69;4923512;29;20075;-73
2022/08/10 09:07:13;;;;;;;1.80;1.33;;;;;;;26.15;32.61;98956.59;4919431;29;20039;-73
2022/08/10 09:10:11;;;;;;;2.45;1.15;;;;;;;26.48;30.22;98951.22;4930372;28;20048;-73
2022/08/10 09:12:53;;;;;;;6.20;1.67;;;;;;;26.71;30.57;98946.75;4918652;29;20044;-73
2022/08/10 09:15:27;;;;;;;1.50;1.40;;;;;;;26.79;29.71;98954.47;4923377;29;20513;-73
2022/08/10 09:18:27;;;;;;;2.40;1.30;;;;;;;26.83;29.55;98954.78;4916535;29;20296;-73
2022/08/10 09:21:02;;;;;;;2.05;1.30;;;;;;;26.62;31.15;98945.50;4922357;29;20062;-73
2022/08/10 09:23:44;;;;;;;3.35;1.25;;;;;;;27.07;30.00;98956.28;4924097;29;20066;-73
2022/08/10 09:26:47;;;;;;;1.58;1.48;;;;;;;27.10;29.55;98944.91;4914429;29;20044;-73
2022/08/10 09:29:30;;;;;;;1.40;1.30;;;;;;;27.26;28.29;98937.00;4924370;29;20360;-73
2022/08/10 09:32:13;;;;;;;6.50;1.58;;;;;;;27.31;28.23;98934.34;4912553;29;20132;-73
2022/08/10 09:35:10;;;;;;;2.13;1.48;;;;;;;27.38;28.31;98926.81;4913652;29;20032;-73
2022/08/10 09:38:06;;;;;;;2.78;1.20;;;;;;;27.49;28.89;98930.50;4917843;29;20043;-72
2022/08/10 09:40:49;;;;;;;2.45;1.00;;;;;;;27.87;26.92;98928.81;4916987;29;20756;-73
2022/08/10 09:43:51;;;;;;;4.20;1.48;;;;;;;27.36;28.44;98926.28;4921486;29;20050;-73
2022/08/10 09:46:47;;;;;;;1.52;1.40;;;;;;;27.39;27.33;98943.97;4916124;29;20070;-73
2022/08/10 09:49:19;;;;;;;2.80;1.17;;;;;;;26.99;27.39;98934.97;4909873;29;20047;-73
2022/08/10 09:52:07;;;;;;;3.08;1.95;;;;;;;27.09;25.73;98931.56;4914569;29;20040;-73
2022/08/10 09:54:52;;;;;;;2.00;1.20;;;;;;;27.27;28.76;98930.50;4918694;29;20520;-73
2022/08/10 09:57:27;;;;;;;5.90;1.40;;;;;;;27.23;26.80;98932.09;4916939;29;20136;-73
2022/08/10 10:00:17;;;;;;;2.00;1.40;;;;;;;27.04;27.29;98926.91;4925687;29;20055;-72
2022/08/10 10:02:57;;;;;;;1.80;1.35;;;;;;;26.85;28.53;98933.66;4909745;29;20052;-73
2022/08/10 10:05:37;;;;;;;3.10;1.17;;;;;;;27.20;28.40;98929.84;4912330;29;20096;-72
2022/08/10 10:08:24;;;;;;;3.00;1.50;;;;;;;27.10;28.23;98923.19;4918378;29;20131;-72
2022/08/10 10:11:23;;;;;;;4.45;1.33;;;;;;;27.01;28.00;98912.97;4922122;29;20534;-73
2022/08/10 10:14:11;;;;;;;4.25;1.10;;;;;;;27.00;28.12;98931.16;4918929;29;20059;-73
2022/08/10 10:16:47;;;;;;;1.35;1.25;;;;;;;26.96;28.21;98935.44;4923536;29;20058;-72
2022/08/10 10:19:41;;;;;;;2.45;1.25;;;;;;;27.11;27.48;98926.72;4926406;29;20070;-73
2022/08/10 10:22:27;;;;;;;5.45;1.52;;;;;;;27.02;26.84;98920.88;4938714;28;20134;-72
2022/08/10 10:25:05;;;;;;;1.98;1.40;;;;;;;27.08;27.37;98924.50;4921746;29;20039;-72
2022/08/10 10:28:08;;;;;;;2.17;1.15;;;;;;;27.02;28.27;98922.78;4935326;28;20044;-72
2022/08/10 10:30:43;;;;;;;3.63;1.30;;;;;;;26.90;28.63;98917.44;4919782;29;20044;-72
2022/08/10 10:33:32;;;;;;;2.83;1.30;;;;;;;26.54;28.96;98907.91;4920930;29;20067;-72
2022/08/10 10:36:00;;;;;;;3.30;1.55;;;;;;;26.75;29.01;98907.16;4924414;29;20161;-72
2022/08/10 10:38:34;;;;;;;1.42;1.33;;;;;;;26.77;29.52;98904.22;4916354;29;20058;-72
2022/08/10 10:41:30;;;;;;;2.92;1.23;;;;;;;26.86;28.91;98905.44;4915182;29;20122;-72
2022/08/10 10:44:24;;;;;;;2.47;1.33;;;;;;;27.11;28.80;98894.94;4917998;29;20048;-72
2022/08/10 10:47:13;;;;;;;2.20;1.15;;;;;;;27.10;28.80;98901.44;4924202;29;20056;-72
2022/08/10 10:49:53;;;;;;;1.70;1.40;;;;;;;27.03;29.19;98895.38;4923991;29;20069;-72
2022/08/10 10:52:45;;;;;;;1.77;1.13;;;;;;;27.12;27.93;98899.31;4921165;29;20098;-72
2022/08/10 10:55:38;;;;;;;;;;;;;;;27.09;27.50;98898.97;4920955;29;20062;-73
2022/08/10 10:58:38;;;;;;;1.92;1.25;;;;;;;27.10;27.46;98893.31;4914099;29;19922;-72
2022/08/10 11:01:17;;;;;;;2.97;1.27;;;;;;;27.04;26.87;98882.59;4921200;29;20531;-72
2022/08/10 11:03:55;;;;;;;4.40;1.15;;;;;;;26.99;27.69;98886.09;4919600;29;20076;-72
2022/08/10 11:06:38;;;;;;;1.63;1.00;;;;;;;26.64;28.14;98878.22;4901692;29;20050;-73
2022/08/10 11:09:14;;;;;;;2.92;1.58;;;;;;;26.83;28.40;98885.06;4924999;29;20052;-73
2022/08/10 11:12:09;;;;;;;1.42;0.93;;;;;;;26.90;27.65;98879.44;4918293;29;20048;-72
2022/08/10 11:15:09;;;;;;;2.95;1.52;;;;;;;27.04;27.38;98878.03;4916124;29;20044;-73
2022/08/10 11:17:35;;;;;;;2.95;1.02;;;;;;;27.30;28.00;98879.19;4920875;29;20062;-73
2022/08/10 11:20:17;;;;;;;1.77;1.27;;;;;;;27.17;27.28;98882.28;4929031;29;20036;-72
2022/08/10 11:23:07;;;;;;;2.95;1.13;;;;;;;27.17;27.28;98870.56;4936228;28;20137;-72
2022/08/10 11:25:44;;;;;;;2.05;1.05;;;;;;;26.97;28.65;98874.66;4910465;29;20411;-72
2022/08/10 11:28:36;;;;;;;4.88;1.40;;;;;;;27.11;27.74;98875.91;4923015;29;20061;-73
2022/08/10 11:31:10;;;;;;;2.00;1.10;;;;;;;27.07;28.47;98877.50;4930959;28;20498;-73
2022/08/10 11:33:43;;;;;;;2.35;1.17;;;;;;;27.46;26.73;98873.94;4929327;29;20057;-73
2022/08/10 11:36:54;;;;;;;1.75;1.20;;;;;;;27.58;27.17;98861.03;4920307;29;20048;-72
2022/08/10 11:39:33;;;;;;;1.98;1.02;;;;;;;27.21;27.95;98858.16;4919830;29;20162;-72
2022/08/10 11:42:06;;;;;;;1.67;1.25;;;;;;;27.18;29.43;98870.34;4917055;29;20055;-72
2022/08/10 11:44:56;;;;;;;1.60;1.13;;;;;;;27.17;27.87;98857.81;4913555;29;20047;-72
2022/08/10 11:47:28;;;;;;;1.92;0.90;;;;;;;27.26;29.92;98871.81;4913494;29;20523;-72
2022/08/10 11:50:02;;;;;;;1.65;1.50;;;;;;;27.61;28.29;98882.28;4928102;29;20049;-72
2022/08/10 11:52:47;;;;;;;2.95;1.42;;;;;;;27.66;26.45;98866.03;4919366;29;20135;-72
2022/08/10 11:55:22;;;;;;;3.15;1.30;;;;;;;27.31;27.27;98867.25;4918842;29;20039;-73
2022/08/10 11:57:52;;;;;;;3.05;1.38;;;;;;;27.44;28.55;98868.78;4929178;29;20434;-72
2022/08/10 12:00:31;;;;;;;2.95;1.52;;;;;;;27.55;28.22;98861.56;4921070;29;20576;-72
2022/08/10 12:03:01;;;;;;;3.00;1.30;;;;;;;27.26;29.38;98858.22;4913553;29;20079;-72
2022/08/10 12:05:38;;;;;;;4.10;1.20;;;;;;;27.37;28.85;98860.00;4914517;29;20672;-72
2022/08/10 12:08:23;;;;;;;2.17;1.17;;;;;;;27.00;29.39;98860.56;4913299;29;20103;-72
2022/08/10 12:11:13;;;;;;;2.35;1.00;;;;;;;26.93;29.09;98857.22;4924246;29;20044;-73
2022/08/10 12:14:02;;;;;;;2.40;1.38;;;;;;;27.10;29.68;98849.84;4924702;29;20039;-72
2022/08/10 12:16:50;;;;;;;1.80;1.35;;;;;;;27.58;27.53;98851.00;4917521;29;20480;-72
2022/08/10 12:19:30;;;;;;;1.77;1.23;;;;;;;27.74;26.61;98843.00;4916322;29;20106;-72
2022/08/10 12:22:20;;;;;;;4.00;1.35;;;;;;;27.77;28.45;98845.19;4915183;29;20059;-72